Time;durP1;ratioP1;P1;durP2;ratioP2;P2;SDS_P1;SDS_P2;PMS_P1;PMS_P2;Temp;Humidity;BMP_temperature;BMP_pressure;BME280_temperature;BME280_humidity;BME280_pressure;Samples;Min_cycle;Max_cycle;Signal;HPM_P1;HPM_P2
2024/01/08 00:02:16;;;;;;;7.90;4.88;;;-2.10;99.90;;;;;;5127569;28;20219;-66
2024/01/08 00:04:43;;;;;;;6.43;4.57;;;-2.10;99.90;;;;;;5126974;28;20208;-65
2024/01/08 00:07:10;;;;;;;6.60;4.72;;;-2.10;99.90;;;;;;5125521;28;20227;-65
2024/01/08 00:09:37;;;;;;;6.90;4.35;;;-2.10;99.90;;;;;;5127905;28;20207;-65
2024/01/08 00:12:04;;;;;;;6.35;4.65;;;-2.10;99.90;;;;;;5130568;28;20223;-65
2024/01/08 00:14:31;;;;;;;7.15;5.15;;;-2.00;99.90;;;;;;5127052;28;20258;-65
2024/01/08 00:16:59;;;;;;;5.05;4.55;;;-2.00;99.90;;;;;;5125994;28;20229;-65
2024/01/08 00:19:26;;;;;;;8.25;5.70;;;-2.10;99.90;;;;;;5127469;28;20206;-65
2024/01/08 00:21:53;;;;;;;7.63;4.90;;;-2.00;99.90;;;;;;5126285;28;20284;-65
2024/01/08 00:24:19;;;;;;;8.93;5.63;;;-2.10;99.90;;;;;;5124589;28;20612;-66
2024/01/08 00:26:46;;;;;;;6.40;4.55;;;-2.00;99.90;;;;;;5122455;28;20585;-65
2024/01/08 00:29:13;;;;;;;6.60;5.25;;;-2.00;99.90;;;;;;5126920;28;20270;-66
2024/01/08 00:31:40;;;;;;;9.23;6.05;;;-2.00;99.90;;;;;;5126243;28;20310;-66
2024/01/08 00:34:08;;;;;;;7.22;5.25;;;-2.00;99.90;;;;;;5127542;28;20210;-65
2024/01/08 00:36:35;;;;;;;7.57;4.90;;;-2.00;99.90;;;;;;5129239;27;20291;-65
2024/01/08 00:39:02;;;;;;;8.15;5.53;;;-2.00;99.90;;;;;;5128719;28;20215;-65
2024/01/08 00:41:29;;;;;;;5.70;4.72;;;-2.10;99.90;;;;;;5129670;28;20287;-65
2024/01/08 00:43:56;;;;;;;7.80;4.90;;;-2.10;99.90;;;;;;5130762;28;20202;-66
2024/01/08 00:46:23;;;;;;;7.85;5.25;;;-2.10;99.90;;;;;;5131172;28;20204;-65
2024/01/08 00:48:49;;;;;;;7.55;4.60;;;-2.10;99.90;;;;;;5128942;28;20192;-67
2024/01/08 00:51:17;;;;;;;9.05;5.55;;;-2.10;99.90;;;;;;5127899;27;20295;-65
2024/01/08 00:53:44;;;;;;;11.75;6.07;;;-2.00;99.90;;;;;;5126101;28;20287;-65
2024/01/08 00:56:11;;;;;;;6.47;5.00;;;-2.00;99.90;;;;;;5124292;28;20195;-65
2024/01/08 00:58:41;;;;;;;6.80;5.43;;;-2.00;99.90;;;;;;5120654;27;20225;-65
2024/01/08 01:01:08;;;;;;;8.90;5.80;;;-2.00;99.90;;;;;;5119719;28;20237;-64
2024/01/08 01:03:35;;;;;;;5.47;4.60;;;-2.00;99.90;;;;;;5118755;28;20203;-65
2024/01/08 01:06:03;;;;;;;8.52;5.35;;;-2.00;99.90;;;;;;5118400;28;20206;-64
2024/01/08 01:08:31;;;;;;;8.35;5.00;;;-2.00;99.90;;;;;;5119892;28;20283;-64
2024/01/08 01:10:58;;;;;;;7.55;5.25;;;-2.00;99.90;;;;;;5119451;28;20588;-64
2024/01/08 01:13:25;;;;;;;6.72;5.32;;;-2.00;99.90;;;;;;5118306;28;20274;-64
2024/01/08 01:15:52;;;;;;;8.73;5.25;;;-2.00;99.90;;;;;;5117510;28;20561;-64
2024/01/08 01:18:19;;;;;;;6.82;5.15;;;-1.90;99.90;;;;;;5117883;28;20589;-64
2024/01/08 01:20:46;;;;;;;5.60;4.70;;;-1.90;99.90;;;;;;5119010;28;20540;-65
2024/01/08 01:23:12;;;;;;;8.60;4.95;;;-2.00;99.90;;;;;;5118375;28;20219;-63
2024/01/08 01:25:41;;;;;;;7.68;6.28;;;-1.90;99.90;;;;;;5119103;28;20199;-64
2024/01/08 01:28:07;;;;;;;6.80;5.63;;;-2.00;99.90;;;;;;5122233;28;20196;-64
2024/01/08 01:30:34;;;;;;;10.75;5.93;;;-1.90;99.90;;;;;;5125394;28;20196;-65
2024/01/08 01:33:01;;;;;;;8.27;6.25;;;-1.90;99.90;;;;;;5125998;28;20236;-64
2024/01/08 01:35:28;;;;;;;7.45;5.93;;;-1.90;99.90;;;;;;5126068;28;20211;-65
2024/01/08 01:37:57;;;;;;;8.38;6.53;;;-2.00;99.90;;;;;;5130069;27;20216;-65
2024/01/08 01:40:25;;;;;;;9.13;5.72;;;-2.00;99.90;;;;;;5127227;27;20200;-64
2024/01/08 01:42:54;;;;;;;9.38;5.18;;;-2.00;99.90;;;;;;5120706;28;20603;-65
2024/01/08 01:45:21;;;;;;;8.90;5.82;;;-2.00;99.90;;;;;;5116969;28;20290;-65
2024/01/08 01:47:48;;;;;;;7.70;5.78;;;-2.00;99.90;;;;;;5117197;28;20329;-64
2024/01/08 01:50:15;;;;;;;7.63;5.82;;;-1.90;99.90;;;;;;5117213;28;20263;-66
2024/01/08 01:52:43;;;;;;;6.97;5.05;;;-1.90;99.90;;;;;;5116274;28;20220;-65
2024/01/08 01:55:11;;;;;;;6.43;5.05;;;-1.90;99.90;;;;;;5116519;28;20702;-65
2024/01/08 01:57:38;;;;;;;9.23;5.40;;;-1.90;99.90;;;;;;5116552;28;20230;-65
2024/01/08 02:00:08;;;;;;;7.28;5.03;;;-1.90;99.90;;;;;;5116533;28;20204;-64
2024/01/08 02:02:35;;;;;;;7.38;4.93;;;-1.90;99.90;;;;;;5116661;28;20216;-64
2024/01/08 02:05:03;;;;;;;8.27;5.90;;;-1.90;99.90;;;;;;5116315;28;20204;-65
2024/01/08 02:07:30;;;;;;;8.30;5.95;;;-1.90;99.90;;;;;;5116409;28;20203;-63
2024/01/08 02:09:58;;;;;;;7.72;6.03;;;-1.90;99.90;;;;;;5116115;27;20196;-65
2024/01/08 02:12:26;;;;;;;6.55;5.03;;;-1.90;99.90;;;;;;5115900;28;20223;-65
2024/01/08 02:14:53;;;;;;;7.63;6.38;;;-1.90;99.90;;;;;;5116165;28;20202;-65
2024/01/08 02:17:21;;;;;;;6.50;4.93;;;-1.90;99.90;;;;;;5115966;28;20203;-65
2024/01/08 02:19:48;;;;;;;9.52;6.13;;;-1.90;99.90;;;;;;5115731;28;20203;-65
2024/01/08 02:22:15;;;;;;;7.82;5.80;;;-1.80;99.90;;;;;;5115980;28;20220;-65
2024/01/08 02:24:43;;;;;;;8.10;5.60;;;-1.80;99.90;;;;;;5115664;27;20199;-65
2024/01/08 02:27:10;;;;;;;8.93;5.15;;;-1.80;99.90;;;;;;5115310;28;20199;-64
2024/01/08 02:29:36;;;;;;;7.13;5.20;;;-1.80;99.90;;;;;;5115528;28;20222;-65
2024/01/08 02:32:03;;;;;;;6.72;5.20;;;-1.80;99.90;;;;;;5115529;28;20336;-65
2024/01/08 02:34:30;;;;;;;6.63;4.97;;;-1.80;99.90;;;;;;5115726;28;20204;-66
2024/01/08 02:36:57;;;;;;;4.97;4.47;;;-1.80;99.90;;;;;;5115242;28;20572;-65
2024/01/08 02:39:24;;;;;;;5.50;4.38;;;-1.80;99.90;;;;;;5115723;28;20219;-64
2024/01/08 02:41:52;;;;;;;6.18;5.50;;;-1.80;99.90;;;;;;5115368;28;20269;-64
2024/01/08 02:44:19;;;;;;;6.57;4.35;;;-1.80;99.90;;;;;;5115081;28;20210;-64
2024/01/08 02:46:45;;;;;;;5.85;4.18;;;-1.80;99.90;;;;;;5115415;28;20206;-63
2024/01/08 02:49:12;;;;;;;5.93;4.07;;;-1.80;99.90;;;;;;5115469;28;20291;-65
2024/01/08 02:51:39;;;;;;;5.90;4.65;;;-1.80;99.90;;;;;;5113827;28;20785;-65
2024/01/08 02:54:06;;;;;;;6.45;4.30;;;-1.80;99.90;;;;;;5115428;28;20231;-65
2024/01/08 02:56:32;;;;;;;5.80;4.50;;;-1.80;99.90;;;;;;5114690;27;20202;-65
2024/01/08 02:59:06;;;;;;;5.03;4.43;;;-1.80;99.90;;;;;;5114975;28;20316;-65
2024/01/08 03:01:32;;;;;;;5.82;4.05;;;-1.70;99.90;;;;;;5115302;28;20235;-65
2024/01/08 03:03:59;;;;;;;6.97;5.00;;;-1.70;99.90;;;;;;5114879;28;20199;-66
2024/01/08 03:06:26;;;;;;;6.60;4.15;;;-1.70;99.90;;;;;;5114844;28;20212;-66
2024/01/08 03:08:53;;;;;;;5.60;3.85;;;-1.70;99.90;;;;;;5114624;28;20202;-65
2024/01/08 03:11:19;;;;;;;4.13;3.60;;;-1.70;99.90;;;;;;5114645;28;20223;-65
2024/01/08 03:13:46;;;;;;;4.95;4.35;;;-1.70;99.90;;;;;;5114345;28;20578;-65
2024/01/08 03:16:14;;;;;;;5.50;3.85;;;-1.70;99.90;;;;;;5114842;28;20207;-64
2024/01/08 03:18:40;;;;;;;7.05;4.18;;;-1.70;99.90;;;;;;5114689;28;20230;-65
2024/01/08 03:21:07;;;;;;;4.97;3.90;;;-1.60;99.90;;;;;;5114613;28;20542;-65
2024/01/08 03:23:35;;;;;;;4.82;4.15;;;-1.60;99.90;;;;;;5114518;28;20448;-65
2024/01/08 03:26:01;;;;;;;8.05;4.53;;;-1.60;99.90;;;;;;5114570;28;20245;-65
2024/01/08 03:28:28;;;;;;;5.93;4.63;;;-1.60;99.90;;;;;;5114533;28;20356;-64
2024/01/08 03:30:55;;;;;;;7.45;5.00;;;-1.60;99.90;;;;;;5119404;28;20200;-66
2024/01/08 03:33:23;;;;;;;4.47;3.85;;;-1.70;99.90;;;;;;5124576;28;20226;-65
2024/01/08 03:35:50;;;;;;;5.05;4.55;;;-1.70;99.90;;;;;;5126034;28;20268;-65
2024/01/08 03:38:17;;;;;;;5.45;4.55;;;-1.70;99.90;;;;;;5116610;28;20222;-66
2024/01/08 03:40:44;;;;;;;5.93;4.55;;;-1.70;99.90;;;;;;5114252;28;20669;-64
2024/01/08 03:43:12;;;;;;;9.10;5.20;;;-1.80;99.90;;;;;;5114195;28;20590;-65
2024/01/08 03:45:39;;;;;;;6.80;4.65;;;-1.70;99.90;;;;;;5113931;28;20222;-65
2024/01/08 03:48:06;;;;;;;6.40;4.60;;;-1.80;99.90;;;;;;5114242;28;20203;-65
2024/01/08 03:50:35;;;;;;;6.40;4.50;;;-1.80;99.90;;;;;;5114069;28;20200;-65
2024/01/08 03:53:02;;;;;;;7.20;4.38;;;-1.80;99.90;;;;;;5113971;28;20250;-65
2024/01/08 03:55:30;;;;;;;7.80;4.18;;;-1.80;99.90;;;;;;5114198;28;20207;-65
2024/01/08 03:57:56;;;;;;;6.80;4.55;;;-1.90;99.90;;;;;;5114066;28;20290;-65
2024/01/08 04:00:24;;;;;;;7.43;5.18;;;-1.80;99.90;;;;;;5114447;28;20210;-63
2024/01/08 04:02:52;;;;;;;6.90;4.97;;;-1.90;99.90;;;;;;5113275;28;20219;-65
2024/01/08 04:05:19;;;;;;;10.05;5.32;;;-1.80;99.90;;;;;;5113915;28;20211;-65
2024/01/08 04:07:47;;;;;;;5.78;4.90;;;-1.80;99.90;;;;;;5113927;28;20196;-65
2024/01/08 04:12:57;;;;;;;6.43;5.25;;;-1.80;99.90;;;;;;5111642;27;20555;-64
2024/01/08 04:15:24;;;;;;;6.93;4.80;;;-1.80;99.90;;;;;;5111212;28;20568;-64
2024/01/08 04:17:51;;;;;;;6.10;4.80;;;-1.80;99.90;;;;;;5111258;28;20278;-65
2024/01/08 04:20:18;;;;;;;7.40;5.18;;;-1.80;99.90;;;;;;5111531;28;20583;-64
2024/01/08 04:22:46;;;;;;;7.82;5.50;;;-1.80;99.90;;;;;;5111236;28;20226;-64
2024/01/08 04:25:12;;;;;;;8.60;5.25;;;-1.80;99.90;;;;;;5112190;28;20212;-65
2024/01/08 04:27:39;;;;;;;5.93;4.75;;;-1.80;99.90;;;;;;5111722;28;20200;-65
2024/01/08 04:30:08;;;;;;;5.97;4.90;;;-1.80;99.90;;;;;;5111414;28;20206;-65
2024/01/08 04:32:35;;;;;;;6.85;5.32;;;-1.80;99.90;;;;;;5111242;28;20235;-65
2024/01/08 04:35:02;;;;;;;5.63;4.85;;;-1.80;99.90;;;;;;5111401;28;20370;-65
2024/01/08 04:37:29;;;;;;;6.25;4.32;;;-1.80;99.90;;;;;;5111226;28;20204;-64
2024/01/08 04:39:56;;;;;;;7.82;4.60;;;-1.80;99.90;;;;;;5111058;28;20610;-65
2024/01/08 04:42:23;;;;;;;7.03;4.55;;;-1.90;99.90;;;;;;5111240;28;20235;-65
2024/01/08 04:44:50;;;;;;;5.32;4.25;;;-1.90;99.90;;;;;;5111155;28;20206;-65
2024/01/08 04:47:18;;;;;;;5.80;4.43;;;-2.00;99.90;;;;;;5111133;28;20199;-65
2024/01/08 04:49:45;;;;;;;7.05;4.68;;;-2.00;99.90;;;;;;5111456;28;20530;-65
2024/01/08 04:52:12;;;;;;;5.35;4.80;;;-2.10;99.90;;;;;;5111297;28;20227;-64
2024/01/08 04:54:41;;;;;;;6.30;4.60;;;-2.20;99.90;;;;;;5111494;28;20195;-65
2024/01/08 04:57:08;;;;;;;4.85;4.28;;;-2.20;99.90;;;;;;5110924;28;20225;-64
2024/01/08 04:59:40;;;;;;;13.95;4.85;;;-2.20;99.90;;;;;;5111128;28;20203;-64
2024/01/08 05:02:06;;;;;;;5.40;4.38;;;-2.20;99.90;;;;;;5111376;28;20220;-64
2024/01/08 05:04:35;;;;;;;6.65;4.68;;;-2.20;99.90;;;;;;5111491;28;20681;-64
2024/01/08 05:07:02;;;;;;;5.50;4.82;;;-2.20;99.90;;;;;;5111480;28;20204;-64
2024/01/08 05:09:29;;;;;;;6.00;4.55;;;-2.20;99.90;;;;;;5111517;28;20208;-64
2024/01/08 05:11:56;;;;;;;6.10;4.00;;;-2.20;99.90;;;;;;5110838;28;20230;-64
2024/01/08 05:14:23;;;;;;;4.82;3.45;;;-2.30;99.90;;;;;;5111457;28;20199;-61
2024/01/08 05:16:49;;;;;;;3.35;3.05;;;-2.30;99.90;;;;;;5111505;28;20200;-63
2024/01/08 05:19:16;;;;;;;6.47;3.72;;;-2.40;99.90;;;;;;5111510;28;20674;-64
2024/01/08 05:21:45;;;;;;;3.78;3.00;;;-2.50;99.90;;;;;;5112263;28;20219;-63
2024/01/08 05:24:13;;;;;;;4.28;3.10;;;-2.50;99.90;;;;;;5099511;28;20283;-64
2024/01/08 05:26:39;;;;;;;4.88;3.10;;;-2.60;99.90;;;;;;5099014;28;20228;-64
2024/01/08 05:29:06;;;;;;;5.18;3.58;;;-2.70;99.90;;;;;;5097427;28;20202;-63
2024/01/08 05:31:33;;;;;;;6.10;3.20;;;-2.70;99.90;;;;;;5096673;28;20293;-64
2024/01/08 05:34:00;;;;;;;5.15;3.33;;;-2.80;99.90;;;;;;5096540;28;20204;-63
2024/01/08 05:36:27;;;;;;;6.90;3.80;;;-2.80;99.90;;;;;;5096582;28;20307;-64
2024/01/08 05:38:59;;;;;;;3.88;3.40;;;-2.90;99.90;;;;;;5095896;28;20550;-63
2024/01/08 05:41:26;;;;;;;3.40;3.10;;;-2.90;99.90;;;;;;5096022;28;20269;-63
2024/01/08 05:43:52;;;;;;;5.55;2.85;;;-3.00;99.90;;;;;;5096311;28;20196;-62
2024/01/08 05:46:19;;;;;;;3.97;3.55;;;-3.00;99.90;;;;;;5096213;28;20246;-63
2024/01/08 05:48:46;;;;;;;3.28;2.97;;;-3.10;99.90;;;;;;5096061;28;20666;-63
2024/01/08 05:51:13;;;;;;;5.28;3.67;;;-3.10;99.90;;;;;;5096644;28;20704;-64
2024/01/08 05:53:39;;;;;;;4.20;3.50;;;-3.10;99.90;;;;;;5095550;28;20201;-62
2024/01/08 05:56:08;;;;;;;4.72;3.78;;;-3.20;99.90;;;;;;5096554;28;20576;-63
2024/01/08 05:58:34;;;;;;;6.28;3.78;;;-3.20;99.90;;;;;;5095711;28;20685;-62
2024/01/08 06:01:01;;;;;;;4.90;3.42;;;-3.30;99.90;;;;;;5095886;28;20208;-62
2024/01/08 06:03:28;;;;;;;5.28;4.10;;;-3.40;99.90;;;;;;5096035;28;20204;-63
2024/01/08 06:05:55;;;;;;;5.13;3.28;;;-3.40;99.90;;;;;;5098539;28;20200;-62
2024/01/08 06:08:21;;;;;;;4.43;3.28;;;-3.40;99.90;;;;;;5099103;28;20206;-63
2024/01/08 06:10:48;;;;;;;7.13;3.47;;;-3.50;99.50;;;;;;5100892;28;20283;-63
2024/01/08 06:13:16;;;;;;;6.97;3.20;;;-3.50;99.20;;;;;;5100709;28;20220;-63
2024/01/08 06:15:44;;;;;;;5.60;3.95;;;-3.50;99.10;;;;;;5101750;28;20292;-63
2024/01/08 06:18:11;;;;;;;4.50;3.00;;;-3.60;99.20;;;;;;5102386;28;20737;-61
2024/01/08 06:20:37;;;;;;;4.78;3.28;;;-3.60;99.00;;;;;;5102023;28;20587;-64
2024/01/08 06:23:04;;;;;;;4.22;3.40;;;-3.70;98.90;;;;;;5100042;28;20216;-62
2024/01/08 06:25:31;;;;;;;3.78;3.42;;;-3.70;98.80;;;;;;5098654;28;20204;-62
2024/01/08 06:27:58;;;;;;;4.78;3.70;;;-3.70;98.60;;;;;;5098107;28;20210;-61
2024/01/08 06:30:26;;;;;;;7.05;3.75;;;-3.80;98.50;;;;;;5097211;28;20204;-63
2024/01/08 06:32:53;;;;;;;4.15;3.25;;;-3.80;98.10;;;;;;5099274;28;20232;-62
2024/01/08 06:35:19;;;;;;;5.05;4.50;;;-3.80;97.80;;;;;;5096608;28;20204;-62
2024/01/08 06:37:46;;;;;;;5.88;3.72;;;-3.90;97.50;;;;;;5096997;28;20200;-62
2024/01/08 06:40:13;;;;;;;3.67;3.13;;;-3.90;97.20;;;;;;5098138;28;20200;-62
2024/01/08 06:42:40;;;;;;;4.78;3.13;;;-4.00;96.90;;;;;;5096380;28;20216;-61
2024/01/08 06:45:07;;;;;;;4.57;3.10;;;-4.00;96.10;;;;;;5095773;28;20692;-62
2024/01/08 06:47:35;;;;;;;3.97;2.70;;;-4.00;95.00;;;;;;5095836;28;20331;-62
2024/01/08 06:50:03;;;;;;;4.07;3.13;;;-4.00;93.00;;;;;;5095689;28;20201;-63
2024/01/08 06:52:30;;;;;;;3.75;3.35;;;-4.10;91.90;;;;;;5095168;28;20270;-62
2024/01/08 06:54:57;;;;;;;3.42;3.03;;;-4.10;91.10;;;;;;5095333;28;20247;-61
2024/01/08 06:57:24;;;;;;;4.15;3.20;;;-4.10;91.10;;;;;;5094799;28;20204;-62
2024/01/08 06:59:51;;;;;;;4.32;3.35;;;-4.20;90.90;;;;;;5095780;28;20204;-62
2024/01/08 07:02:18;;;;;;;4.72;3.17;;;-4.20;90.60;;;;;;5094722;28;20227;-61
2024/01/08 07:04:46;;;;;;;3.38;3.08;;;-4.30;90.20;;;;;;5095528;28;20611;-62
2024/01/08 07:07:13;;;;;;;4.30;3.10;;;-4.30;89.90;;;;;;5094590;28;20226;-62
2024/01/08 07:09:40;;;;;;;3.75;2.97;;;-4.30;89.50;;;;;;5094870;28;20200;-61
2024/01/08 07:12:08;;;;;;;3.05;2.75;;;-4.30;89.00;;;;;;5094052;28;20220;-61
2024/01/08 07:14:44;;;;;;;4.30;2.50;;;-4.40;88.70;;;;;;5094215;28;20724;-61
2024/01/08 07:17:11;;;;;;;6.22;3.22;;;-4.40;87.70;;;;;;5094678;28;20287;-62
2024/01/08 07:19:38;;;;;;;6.35;3.92;;;-4.40;87.80;;;;;;5094303;28;20200;-62
2024/01/08 07:22:06;;;;;;;4.90;3.67;;;-4.40;87.60;;;;;;5094549;28;20591;-61
2024/01/08 07:24:33;;;;;;;3.60;3.30;;;-4.50;87.80;;;;;;5094346;28;20201;-62
2024/01/08 07:27:00;;;;;;;8.85;4.05;;;-4.50;88.10;;;;;;5094315;28;20283;-62
2024/01/08 07:29:27;;;;;;;12.25;3.45;;;-4.50;88.60;;;;;;5093823;28;20200;-62
2024/01/08 07:31:53;;;;;;;7.38;3.83;;;-4.60;89.20;;;;;;5094474;28;20224;-62
2024/01/08 07:34:20;;;;;;;4.57;3.53;;;-4.60;89.90;;;;;;5094207;28;20669;-62
2024/01/08 07:36:47;;;;;;;6.50;3.92;;;-4.60;90.20;;;;;;5094334;28;20196;-61
2024/01/08 07:39:15;;;;;;;5.95;2.97;;;-4.60;89.30;;;;;;5094232;28;20210;-61
2024/01/08 07:41:43;;;;;;;6.57;3.67;;;-4.60;87.50;;;;;;5094153;28;20216;-62
2024/01/08 07:44:09;;;;;;;3.53;3.22;;;-4.60;86.30;;;;;;5093883;28;20208;-62
2024/01/08 07:46:37;;;;;;;8.77;3.20;;;-4.60;85.50;;;;;;5093816;28;20578;-62
2024/01/08 07:49:04;;;;;;;6.95;3.70;;;-4.60;84.60;;;;;;5093940;28;20200;-62
2024/01/08 07:51:31;;;;;;;5.07;3.20;;;-4.70;84.30;;;;;;5093770;28;20252;-62
2024/01/08 07:53:58;;;;;;;4.90;3.28;;;-4.70;84.60;;;;;;5094069;28;20223;-63
2024/01/08 07:56:26;;;;;;;5.50;3.40;;;-4.70;84.40;;;;;;5093671;28;20226;-62
2024/01/08 07:58:53;;;;;;;4.90;3.65;;;-4.70;85.00;;;;;;5094156;28;20196;-62
2024/01/08 08:01:20;;;;;;;4.65;3.20;;;-4.70;85.00;;;;;;5094039;28;20224;-63
2024/01/08 08:03:47;;;;;;;8.18;2.67;;;-4.70;84.50;;;;;;5093869;28;20196;-61
2024/01/08 08:06:14;;;;;;;6.00;3.67;;;-4.70;84.40;;;;;;5093778;28;20201;-62
2024/01/08 08:08:40;;;;;;;6.13;4.45;;;-4.70;84.50;;;;;;5093493;28;20200;-62
2024/01/08 08:11:07;;;;;;;4.05;3.35;;;-4.80;84.20;;;;;;5093515;28;20212;-62
2024/01/08 08:13:35;;;;;;;6.22;3.28;;;-4.70;83.60;;;;;;5093752;28;20315;-62
2024/01/08 08:16:02;;;;;;;6.15;2.95;;;-4.80;83.40;;;;;;5093802;28;20196;-63
2024/01/08 08:18:29;;;;;;;5.57;3.80;;;-4.80;82.90;;;;;;5093849;28;20200;-62
2024/01/08 08:20:57;;;;;;;3.83;2.97;;;-4.80;82.10;;;;;;5093840;28;20196;-61
2024/01/08 08:23:24;;;;;;;5.18;3.10;;;-4.80;80.50;;;;;;5094044;28;20204;-62
2024/01/08 08:25:50;;;;;;;3.55;2.97;;;-4.70;80.20;;;;;;5094499;28;20203;-62
2024/01/08 08:28:18;;;;;;;4.45;3.58;;;-4.70;80.20;;;;;;5094093;28;20211;-62
2024/01/08 08:30:46;;;;;;;6.55;3.75;;;-4.70;79.70;;;;;;5093948;28;20204;-62
2024/01/08 08:33:13;;;;;;;4.80;3.38;;;-4.70;79.60;;;;;;5094102;28;20220;-62
2024/01/08 08:35:39;;;;;;;4.05;2.80;;;-4.70;79.50;;;;;;5094119;28;20259;-64
2024/01/08 08:38:06;;;;;;;3.03;2.53;;;-4.60;79.50;;;;;;5093956;28;20685;-62
2024/01/08 08:40:33;;;;;;;4.68;3.30;;;-4.60;79.00;;;;;;5094363;28;20206;-62
2024/01/08 08:43:00;;;;;;;3.20;2.70;;;-4.60;79.10;;;;;;5093931;28;20314;-61
2024/01/08 08:45:28;;;;;;;6.50;3.20;;;-4.60;78.90;;;;;;5093608;28;20211;-62
2024/01/08 08:47:56;;;;;;;5.50;2.53;;;-4.60;78.50;;;;;;5093917;28;20283;-62
2024/01/08 08:50:23;;;;;;;3.90;3.33;;;-4.50;77.90;;;;;;5094439;28;20243;-62
2024/01/08 08:52:49;;;;;;;4.07;2.72;;;-4.50;77.30;;;;;;5093897;28;20224;-62
2024/01/08 08:55:16;;;;;;;5.38;3.15;;;-4.50;77.30;;;;;;5096305;28;20207;-62
2024/01/08 08:57:43;;;;;;;3.60;3.00;;;-4.50;77.10;;;;;;5094674;28;20215;-62
2024/01/08 09:00:11;;;;;;;3.65;2.50;;;-4.50;76.50;;;;;;5098879;28;20250;-63
2024/01/08 09:02:37;;;;;;;3.10;2.50;;;-4.50;77.10;;;;;;5099218;28;20222;-62
2024/01/08 09:05:07;;;;;;;3.10;2.80;;;-4.50;76.40;;;;;;5099022;28;20201;-62
2024/01/08 09:07:34;;;;;;;5.03;3.80;;;-4.40;76.60;;;;;;5100143;28;20204;-63
2024/01/08 09:10:02;;;;;;;4.65;2.55;;;-4.40;75.70;;;;;;5098370;28;20196;-63
2024/01/08 09:12:28;;;;;;;3.08;2.53;;;-4.40;75.10;;;;;;5097791;28;20223;-62
2024/01/08 09:14:55;;;;;;;4.95;3.55;;;-4.40;74.80;;;;;;5099524;28;20211;-62
2024/01/08 09:17:22;;;;;;;4.57;3.15;;;-4.40;74.00;;;;;;5098617;28;20200;-62
2024/01/08 09:19:49;;;;;;;4.68;3.22;;;-4.30;73.90;;;;;;5098370;28;20207;-62
2024/01/08 09:22:17;;;;;;;4.60;2.83;;;-4.30;73.90;;;;;;5098356;28;20224;-62
2024/01/08 09:24:44;;;;;;;4.22;3.53;;;-4.30;73.90;;;;;;5098271;28;20303;-62
2024/01/08 09:27:11;;;;;;;4.35;3.00;;;-4.20;74.00;;;;;;5097517;28;20204;-61
2024/01/08 09:29:38;;;;;;;5.18;3.22;;;-4.20;74.00;;;;;;5096658;28;20196;-62
2024/01/08 09:32:05;;;;;;;4.85;3.50;;;-4.20;73.50;;;;;;5096846;28;20220;-63
2024/01/08 09:34:32;;;;;;;4.60;3.90;;;-4.10;73.00;;;;;;5096182;28;20205;-63
2024/01/08 09:36:58;;;;;;;2.78;2.50;;;-4.10;71.50;;;;;;5096431;28;20204;-62
2024/01/08 09:39:27;;;;;;;4.75;3.00;;;-4.10;71.10;;;;;;5096820;28;20196;-62
2024/01/08 09:41:55;;;;;;;4.25;3.20;;;-4.10;70.50;;;;;;5096056;28;20325;-63
2024/01/08 09:44:22;;;;;;;3.83;3.33;;;-4.10;69.80;;;;;;5096162;28;20200;-62
2024/01/08 09:46:52;;;;;;;3.65;2.83;;;-4.10;70.10;;;;;;5096495;28;20206;-62
2024/01/08 09:49:20;;;;;;;5.85;2.97;;;-4.00;70.40;;;;;;5096243;28;20686;-62
2024/01/08 09:51:48;;;;;;;4.78;2.90;;;-4.00;68.70;;;;;;5096194;28;20220;-62
2024/01/08 09:54:18;;;;;;;4.10;3.40;;;-4.00;68.60;;;;;;5096269;28;20251;-63
2024/01/08 09:56:50;;;;;;;4.03;2.75;;;-4.00;68.20;;;;;;5096265;28;20204;-62
2024/01/08 09:59:17;;;;;;;3.03;2.60;;;-4.00;67.50;;;;;;5096183;28;20275;-63
2024/01/08 10:01:44;;;;;;;5.85;3.10;;;-4.00;67.00;;;;;;5096027;28;20228;-62
2024/01/08 10:04:10;;;;;;;3.08;2.80;;;-3.90;66.80;;;;;;5096564;28;20201;-63
2024/01/08 10:06:38;;;;;;;3.85;2.90;;;-3.90;66.10;;;;;;5096310;28;20666;-63
2024/01/08 10:09:06;;;;;;;7.63;3.55;;;-4.00;65.20;;;;;;5096560;28;20196;-62
2024/01/08 10:11:32;;;;;;;5.93;3.45;;;-3.90;65.00;;;;;;5095425;28;20637;-63
2024/01/08 10:14:01;;;;;;;5.18;3.60;;;-4.00;64.70;;;;;;5096069;28;20712;-63
2024/01/08 10:16:28;;;;;;;4.18;2.83;;;-4.00;64.80;;;;;;5095883;28;20200;-61
2024/01/08 10:18:55;;;;;;;6.68;4.30;;;-3.90;65.10;;;;;;5096031;28;20200;-63
2024/01/08 10:21:22;;;;;;;4.10;3.35;;;-3.90;64.90;;;;;;5095959;28;20221;-62
2024/01/08 10:23:48;;;;;;;4.72;3.20;;;-3.90;65.10;;;;;;5095872;28;20196;-62
2024/01/08 10:26:17;;;;;;;4.30;3.10;;;-3.80;65.20;;;;;;5095899;28;20200;-64
2024/01/08 10:28:46;;;;;;;2.60;2.40;;;-3.80;65.30;;;;;;5095252;28;20205;-62
2024/01/08 10:31:15;;;;;;;3.35;2.90;;;-3.80;65.30;;;;;;5095495;28;20228;-63
2024/01/08 10:33:41;;;;;;;4.68;3.63;;;-3.80;64.80;;;;;;5095022;28;20216;-63
2024/01/08 10:36:10;;;;;;;4.55;3.15;;;-3.80;64.20;;;;;;5095480;28;20207;-63
2024/01/08 10:38:36;;;;;;;4.90;3.80;;;-3.80;64.00;;;;;;5095430;28;20197;-64
2024/01/08 10:41:04;;;;;;;6.13;4.07;;;-3.80;63.70;;;;;;5094868;28;20197;-63
2024/01/08 10:43:31;;;;;;;5.05;3.63;;;-3.80;63.80;;;;;;5095000;28;20204;-64
2024/01/08 10:45:59;;;;;;;4.30;3.42;;;-3.80;63.80;;;;;;5094707;28;20211;-63
2024/01/08 10:48:39;;;;;;;4.65;4.03;;;-3.70;64.10;;;;;;5095192;28;20214;-64
2024/01/08 10:51:07;;;;;;;4.47;3.33;;;-3.70;64.20;;;;;;5095397;28;20188;-62
2024/01/08 10:53:44;;;;;;;3.70;2.63;;;-3.70;63.50;;;;;;5095099;28;20219;-63
2024/01/08 10:56:12;;;;;;;5.40;3.15;;;-3.70;63.40;;;;;;5095464;28;20184;-63
2024/01/08 10:58:44;;;;;;;3.95;3.53;;;-3.70;63.30;;;;;;5095613;28;20287;-64
2024/01/08 11:01:12;;;;;;;3.55;2.95;;;-3.70;63.40;;;;;;5096702;28;20224;-62
2024/01/08 11:03:40;;;;;;;4.43;3.25;;;-3.70;63.70;;;;;;5097205;28;20207;-64
2024/01/08 11:06:08;;;;;;;5.13;2.90;;;-3.70;63.90;;;;;;5102584;28;20670;-64
2024/01/08 11:08:35;;;;;;;7.35;4.28;;;-3.70;63.90;;;;;;5106149;28;20216;-64
2024/01/08 11:11:08;;;;;;;5.10;3.50;;;-3.70;64.00;;;;;;5103391;28;20204;-63
2024/01/08 11:13:35;;;;;;;7.00;3.88;;;-3.70;64.30;;;;;;5101873;28;20649;-63
2024/01/08 11:16:06;;;;;;;4.40;3.38;;;-3.60;64.80;;;;;;5102511;28;20654;-64
2024/01/08 11:18:33;;;;;;;5.35;3.75;;;-3.50;65.10;;;;;;5096919;28;20184;-62
2024/01/08 11:21:01;;;;;;;5.82;3.60;;;-3.50;64.90;;;;;;5098230;28;20234;-64
2024/01/08 11:23:37;;;;;;;4.40;2.78;;;-3.40;64.80;;;;;;5095654;28;20203;-61
2024/01/08 11:26:05;;;;;;;5.20;3.47;;;-3.40;64.80;;;;;;5095306;28;20189;-62
2024/01/08 11:28:34;;;;;;;4.03;3.00;;;-3.40;64.90;;;;;;5094469;28;20568;-63
2024/01/08 11:31:27;;;;;;;4.57;3.50;;;-3.40;65.20;;;;;;5095296;28;20211;-64
2024/01/08 11:34:32;;;;;;;4.20;3.58;;;-3.40;65.30;;;;;;5095852;28;20204;-64
2024/01/08 11:37:16;;;;;;;3.83;3.10;;;-3.40;65.20;;;;;;5095056;28;20184;-63
2024/01/08 11:39:43;;;;;;;5.10;3.60;;;-3.40;65.20;;;;;;5094519;28;20272;-64
2024/01/08 11:42:10;;;;;;;6.57;3.55;;;-3.30;65.40;;;;;;5095759;28;20224;-63
2024/01/08 11:44:37;;;;;;;4.68;3.88;;;-3.30;65.50;;;;;;5099522;28;20286;-62
2024/01/08 11:47:04;;;;;;;5.30;3.20;;;-3.30;65.80;;;;;;5102666;28;20200;-62
2024/01/08 11:49:31;;;;;;;6.00;4.05;;;-3.20;66.20;;;;;;5100272;28;20204;-63
2024/01/08 11:52:02;;;;;;;4.03;3.38;;;-3.20;66.20;;;;;;5096566;28;20227;-64
2024/01/08 11:54:28;;;;;;;5.05;3.80;;;-3.20;66.20;;;;;;5095684;28;20204;-64
2024/01/08 11:56:56;;;;;;;4.35;3.40;;;-3.20;66.00;;;;;;5095995;28;20307;-63
2024/01/08 11:59:32;;;;;;;8.15;4.10;;;-3.20;66.20;;;;;;5096183;28;20650;-65
2024/01/08 12:02:09;;;;;;;4.07;3.42;;;-3.20;66.50;;;;;;5096550;28;20750;-65
2024/01/08 12:04:36;;;;;;;6.10;3.85;;;-3.20;66.80;;;;;;5096071;28;20181;-66
2024/01/08 12:07:04;;;;;;;8.30;3.80;;;-3.10;67.00;;;;;;5095042;28;20204;-65
2024/01/08 12:09:32;;;;;;;6.25;3.85;;;-3.10;67.20;;;;;;5094431;28;20276;-65
2024/01/08 12:12:06;;;;;;;6.05;3.72;;;-3.00;67.60;;;;;;5094741;28;20232;-65
2024/01/08 12:14:34;;;;;;;5.45;3.55;;;-3.00;67.70;;;;;;5094717;28;20717;-64
2024/01/08 12:17:01;;;;;;;5.57;3.50;;;-2.90;68.00;;;;;;5095701;28;20204;-64
2024/01/08 12:19:40;;;;;;;5.10;3.10;;;-2.90;68.10;;;;;;5094812;28;20253;-65
2024/01/08 12:22:10;;;;;;;5.30;3.75;;;-2.80;68.10;;;;;;5095715;28;20216;-63
2024/01/08 12:24:37;;;;;;;2.97;2.67;;;-2.90;67.70;;;;;;5095431;28;20180;-64
2024/01/08 12:27:05;;;;;;;4.22;3.25;;;-2.80;68.00;;;;;;5095407;28;20206;-65
2024/01/08 12:29:32;;;;;;;4.93;3.47;;;-2.80;67.30;;;;;;5095766;28;20285;-64
2024/01/08 12:32:00;;;;;;;6.25;4.63;;;-2.80;66.90;;;;;;5095998;28;20224;-65
2024/01/08 12:34:29;;;;;;;4.78;3.47;;;-2.80;66.80;;;;;;5099822;28;20222;-64
2024/01/08 12:36:56;;;;;;;4.60;2.95;;;-2.80;66.80;;;;;;5101467;28;20203;-62
2024/01/08 12:39:25;;;;;;;4.78;3.45;;;-2.80;66.20;;;;;;5099739;28;20211;-64
2024/01/08 12:41:55;;;;;;;4.32;3.45;;;-2.80;65.10;;;;;;5099646;28;20598;-64
2024/01/08 12:44:24;;;;;;;2.70;2.50;;;-2.80;64.80;;;;;;5099676;28;20527;-64
2024/01/08 12:46:51;;;;;;;4.45;3.13;;;-2.80;64.90;;;;;;5098941;28;20200;-65
2024/01/08 12:49:18;;;;;;;5.03;3.28;;;-2.80;65.00;;;;;;5100040;28;20302;-63
2024/01/08 12:51:45;;;;;;;3.78;2.42;;;-2.70;65.20;;;;;;5100202;28;20220;-64